sensor_id;sensor_type;location;lat;lon;timestamp;P1;durP1;ratioP1;P2;durP2;ratioP2
19235;SDS011;9752;54.270;12.470;2023-01-09T00:01:45;24.57;;;15.70;;
19235;SDS011;9752;54.270;12.470;2023-01-09T00:06:49;27.83;;;18.13;;
19235;SDS011;9752;54.270;12.470;2023-01-09T00:11:53;24.77;;;17.40;;
19235;SDS011;9752;54.270;12.470;2023-01-09T00:16:57;27.33;;;18.10;;
19235;SDS011;9752;54.270;12.470;2023-01-09T00:21:58;30.23;;;19.27;;
19235;SDS011;9752;54.270;12.470;2023-01-09T00:27:01;28.77;;;18.17;;
19235;SDS011;9752;54.270;12.470;2023-01-09T00:32:04;28.93;;;17.90;;
19235;SDS011;9752;54.270;12.470;2023-01-09T00:37:09;40.87;;;21.33;;
19235;SDS011;9752;54.270;12.470;2023-01-09T00:42:13;25.30;;;17.43;;
19235;SDS011;9752;54.270;12.470;2023-01-09T00:47:18;33.27;;;20.23;;
19235;SDS011;9752;54.270;12.470;2023-01-09T00:52:23;31.40;;;19.70;;
19235;SDS011;9752;54.270;12.470;2023-01-09T00:57:25;28.03;;;18.43;;
19235;SDS011;9752;54.270;12.470;2023-01-09T01:02:28;37.03;;;21.83;;
19235;SDS011;9752;54.270;12.470;2023-01-09T01:07:29;25.33;;;16.33;;
19235;SDS011;9752;54.270;12.470;2023-01-09T01:12:42;39.03;;;19.97;;
19235;SDS011;9752;54.270;12.470;2023-01-09T01:17:45;30.10;;;18.57;;
19235;SDS011;9752;54.270;12.470;2023-01-09T01:22:47;38.60;;;20.07;;
19235;SDS011;9752;54.270;12.470;2023-01-09T01:27:49;27.93;;;17.47;;
19235;SDS011;9752;54.270;12.470;2023-01-09T01:32:52;24.63;;;16.97;;
19235;SDS011;9752;54.270;12.470;2023-01-09T01:37:54;29.63;;;19.40;;
19235;SDS011;9752;54.270;12.470;2023-01-09T01:42:56;36.03;;;20.73;;
19235;SDS011;9752;54.270;12.470;2023-01-09T01:48:00;25.53;;;16.13;;
19235;SDS011;9752;54.270;12.470;2023-01-09T01:53:06;29.67;;;17.17;;
19235;SDS011;9752;54.270;12.470;2023-01-09T01:58:12;34.40;;;20.13;;
19235;SDS011;9752;54.270;12.470;2023-01-09T02:03:17;36.53;;;19.53;;
19235;SDS011;9752;54.270;12.470;2023-01-09T02:08:21;57.77;;;25.93;;
19235;SDS011;9752;54.270;12.470;2023-01-09T02:13:23;47.30;;;24.63;;
19235;SDS011;9752;54.270;12.470;2023-01-09T02:18:39;42.77;;;21.40;;
19235;SDS011;9752;54.270;12.470;2023-01-09T02:24:06;32.10;;;20.30;;
19235;SDS011;9752;54.270;12.470;2023-01-09T02:29:27;31.60;;;19.23;;
19235;SDS011;9752;54.270;12.470;2023-01-09T02:34:49;28.90;;;18.47;;
19235;SDS011;9752;54.270;12.470;2023-01-09T02:40:00;40.40;;;21.70;;
19235;SDS011;9752;54.270;12.470;2023-01-09T02:45:09;38.83;;;19.43;;
19235;SDS011;9752;54.270;12.470;2023-01-09T02:50:14;26.87;;;17.97;;
19235;SDS011;9752;54.270;12.470;2023-01-09T02:55:23;29.27;;;19.10;;
19235;SDS011;9752;54.270;12.470;2023-01-09T03:00:37;35.77;;;21.27;;
19235;SDS011;9752;54.270;12.470;2023-01-09T03:05:49;41.00;;;22.10;;
19235;SDS011;9752;54.270;12.470;2023-01-09T03:10:54;37.47;;;22.00;;
19235;SDS011;9752;54.270;12.470;2023-01-09T03:16:00;45.93;;;24.70;;
19235;SDS011;9752;54.270;12.470;2023-01-09T03:21:08;39.87;;;22.13;;
19235;SDS011;9752;54.270;12.470;2023-01-09T03:26:11;37.17;;;23.37;;
19235;SDS011;9752;54.270;12.470;2023-01-09T03:31:13;41.80;;;24.67;;
19235;SDS011;9752;54.270;12.470;2023-01-09T03:36:17;41.40;;;25.30;;
19235;SDS011;9752;54.270;12.470;2023-01-09T03:41:19;43.87;;;25.97;;
19235;SDS011;9752;54.270;12.470;2023-01-09T03:46:21;42.27;;;26.87;;
19235;SDS011;9752;54.270;12.470;2023-01-09T03:51:24;49.67;;;27.17;;
19235;SDS011;9752;54.270;12.470;2023-01-09T03:56:26;41.20;;;24.60;;
19235;SDS011;9752;54.270;12.470;2023-01-09T04:01:27;48.20;;;28.37;;
19235;SDS011;9752;54.270;12.470;2023-01-09T04:06:30;48.27;;;27.20;;
19235;SDS011;9752;54.270;12.470;2023-01-09T04:11:32;44.13;;;27.13;;
19235;SDS011;9752;54.270;12.470;2023-01-09T04:16:34;50.23;;;27.77;;
19235;SDS011;9752;54.270;12.470;2023-01-09T04:21:37;43.40;;;25.67;;
19235;SDS011;9752;54.270;12.470;2023-01-09T04:26:38;58.07;;;27.67;;
19235;SDS011;9752;54.270;12.470;2023-01-09T04:31:40;53.70;;;31.10;;
19235;SDS011;9752;54.270;12.470;2023-01-09T04:36:43;52.03;;;28.40;;
19235;SDS011;9752;54.270;12.470;2023-01-09T04:41:45;47.27;;;26.63;;
19235;SDS011;9752;54.270;12.470;2023-01-09T04:46:49;57.53;;;32.37;;
19235;SDS011;9752;54.270;12.470;2023-01-09T04:51:52;39.60;;;23.63;;
19235;SDS011;9752;54.270;12.470;2023-01-09T04:56:54;43.50;;;26.50;;
19235;SDS011;9752;54.270;12.470;2023-01-09T05:01:56;60.47;;;32.10;;
19235;SDS011;9752;54.270;12.470;2023-01-09T05:06:59;39.10;;;24.90;;
19235;SDS011;9752;54.270;12.470;2023-01-09T05:12:01;50.50;;;28.30;;
19235;SDS011;9752;54.270;12.470;2023-01-09T05:17:03;41.67;;;25.30;;
19235;SDS011;9752;54.270;12.470;2023-01-09T05:22:06;69.17;;;35.73;;
19235;SDS011;9752;54.270;12.470;2023-01-09T05:27:08;36.90;;;25.43;;
19235;SDS011;9752;54.270;12.470;2023-01-09T05:32:09;50.47;;;28.50;;
19235;SDS011;9752;54.270;12.470;2023-01-09T05:37:12;55.97;;;29.43;;
19235;SDS011;9752;54.270;12.470;2023-01-09T05:42:14;53.77;;;29.37;;
19235;SDS011;9752;54.270;12.470;2023-01-09T05:47:16;47.23;;;29.00;;
19235;SDS011;9752;54.270;12.470;2023-01-09T05:52:19;64.53;;;31.50;;
19235;SDS011;9752;54.270;12.470;2023-01-09T05:57:20;35.63;;;24.23;;
19235;SDS011;9752;54.270;12.470;2023-01-09T06:02:22;37.87;;;24.30;;
19235;SDS011;9752;54.270;12.470;2023-01-09T06:07:25;47.73;;;27.00;;
19235;SDS011;9752;54.270;12.470;2023-01-09T06:12:27;36.97;;;23.80;;
19235;SDS011;9752;54.270;12.470;2023-01-09T06:17:29;41.40;;;24.63;;
19235;SDS011;9752;54.270;12.470;2023-01-09T06:22:32;40.20;;;25.50;;
19235;SDS011;9752;54.270;12.470;2023-01-09T06:27:34;40.17;;;25.80;;
19235;SDS011;9752;54.270;12.470;2023-01-09T06:32:35;46.80;;;27.10;;
19235;SDS011;9752;54.270;12.470;2023-01-09T06:37:39;52.73;;;29.50;;
19235;SDS011;9752;54.270;12.470;2023-01-09T06:42:41;50.43;;;29.37;;
19235;SDS011;9752;54.270;12.470;2023-01-09T06:47:44;52.67;;;29.83;;
19235;SDS011;9752;54.270;12.470;2023-01-09T06:52:47;42.37;;;26.33;;
19235;SDS011;9752;54.270;12.470;2023-01-09T06:57:49;46.03;;;28.33;;
19235;SDS011;9752;54.270;12.470;2023-01-09T07:02:50;63.57;;;34.60;;
19235;SDS011;9752;54.270;12.470;2023-01-09T07:07:53;47.83;;;28.00;;
19235;SDS011;9752;54.270;12.470;2023-01-09T07:12:56;53.83;;;30.67;;
19235;SDS011;9752;54.270;12.470;2023-01-09T07:17:57;62.33;;;34.23;;
19235;SDS011;9752;54.270;12.470;2023-01-09T07:23:00;53.17;;;29.10;;
19235;SDS011;9752;54.270;12.470;2023-01-09T07:28:02;72.00;;;35.67;;
19235;SDS011;9752;54.270;12.470;2023-01-09T07:33:04;70.13;;;36.57;;
19235;SDS011;9752;54.270;12.470;2023-01-09T07:38:07;52.83;;;30.90;;
19235;SDS011;9752;54.270;12.470;2023-01-09T07:43:08;58.23;;;33.53;;
19235;SDS011;9752;54.270;12.470;2023-01-09T07:48:10;50.70;;;30.43;;
19235;SDS011;9752;54.270;12.470;2023-01-09T07:53:13;51.20;;;29.97;;
19235;SDS011;9752;54.270;12.470;2023-01-09T07:58:15;52.60;;;30.57;;
19235;SDS011;9752;54.270;12.470;2023-01-09T08:03:16;79.23;;;39.47;;
19235;SDS011;9752;54.270;12.470;2023-01-09T08:08:19;51.30;;;29.10;;
19235;SDS011;9752;54.270;12.470;2023-01-09T08:13:22;73.30;;;35.27;;
19235;SDS011;9752;54.270;12.470;2023-01-09T08:18:23;65.13;;;34.83;;
19235;SDS011;9752;54.270;12.470;2023-01-09T08:23:27;63.70;;;35.63;;
19235;SDS011;9752;54.270;12.470;2023-01-09T08:28:28;81.30;;;40.17;;
19235;SDS011;9752;54.270;12.470;2023-01-09T08:33:30;76.50;;;41.47;;
19235;SDS011;9752;54.270;12.470;2023-01-09T08:38:33;73.00;;;42.03;;
19235;SDS011;9752;54.270;12.470;2023-01-09T08:43:35;83.80;;;41.07;;
19235;SDS011;9752;54.270;12.470;2023-01-09T08:48:54;56.13;;;33.97;;
19235;SDS011;9752;54.270;12.470;2023-01-09T08:53:57;59.00;;;34.13;;
19235;SDS011;9752;54.270;12.470;2023-01-09T08:58:59;63.27;;;36.67;;
19235;SDS011;9752;54.270;12.470;2023-01-09T09:04:00;57.40;;;32.20;;
19235;SDS011;9752;54.270;12.470;2023-01-09T09:09:05;36.07;;;24.73;;
19235;SDS011;9752;54.270;12.470;2023-01-09T09:14:07;47.60;;;27.43;;
19235;SDS011;9752;54.270;12.470;2023-01-09T09:19:23;42.17;;;26.20;;
19235;SDS011;9752;54.270;12.470;2023-01-09T09:24:26;31.13;;;21.70;;
19235;SDS011;9752;54.270;12.470;2023-01-09T09:29:27;38.17;;;23.60;;
19235;SDS011;9752;54.270;12.470;2023-01-09T09:34:29;31.80;;;21.07;;
19235;SDS011;9752;54.270;12.470;2023-01-09T09:39:32;33.00;;;19.93;;
19235;SDS011;9752;54.270;12.470;2023-01-09T09:44:39;31.33;;;19.93;;
19235;SDS011;9752;54.270;12.470;2023-01-09T09:49:55;26.30;;;19.23;;
19235;SDS011;9752;54.270;12.470;2023-01-09T09:55:10;29.27;;;18.90;;
19235;SDS011;9752;54.270;12.470;2023-01-09T10:00:19;32.67;;;20.27;;
19235;SDS011;9752;54.270;12.470;2023-01-09T10:05:24;28.50;;;19.40;;
19235;SDS011;9752;54.270;12.470;2023-01-09T10:10:32;24.00;;;17.13;;
19235;SDS011;9752;54.270;12.470;2023-01-09T10:15:39;22.10;;;15.07;;
19235;SDS011;9752;54.270;12.470;2023-01-09T10:20:55;19.13;;;13.17;;
19235;SDS011;9752;54.270;12.470;2023-01-09T10:26:00;18.20;;;12.57;;
19235;SDS011;9752;54.270;12.470;2023-01-09T10:31:07;23.17;;;14.90;;
19235;SDS011;9752;54.270;12.470;2023-01-09T10:36:23;21.60;;;14.00;;
19235;SDS011;9752;54.270;12.470;2023-01-09T10:41:43;15.40;;;11.53;;
19235;SDS011;9752;54.270;12.470;2023-01-09T10:46:52;15.83;;;10.67;;
19235;SDS011;9752;54.270;12.470;2023-01-09T10:51:57;18.43;;;13.73;;
19235;SDS011;9752;54.270;12.470;2023-01-09T10:57:09;16.20;;;12.27;;
19235;SDS011;9752;54.270;12.470;2023-01-09T11:02:17;21.03;;;14.03;;
19235;SDS011;9752;54.270;12.470;2023-01-09T11:07:28;23.97;;;14.67;;
19235;SDS011;9752;54.270;12.470;2023-01-09T11:12:35;16.93;;;12.27;;
19235;SDS011;9752;54.270;12.470;2023-01-09T11:17:37;17.07;;;12.13;;
19235;SDS011;9752;54.270;12.470;2023-01-09T11:22:42;11.90;;;9.83;;
19235;SDS011;9752;54.270;12.470;2023-01-09T11:27:53;14.83;;;10.43;;
19235;SDS011;9752;54.270;12.470;2023-01-09T11:33:12;18.83;;;11.90;;
19235;SDS011;9752;54.270;12.470;2023-01-09T11:38:15;14.37;;;10.77;;
19235;SDS011;9752;54.270;12.470;2023-01-09T11:43:20;12.90;;;10.30;;
19235;SDS011;9752;54.270;12.470;2023-01-09T11:48:36;11.53;;;10.33;;
19235;SDS011;9752;54.270;12.470;2023-01-09T11:59:17;13.63;;;10.20;;
19235;SDS011;9752;54.270;12.470;2023-01-09T12:04:21;13.60;;;10.07;;
19235;SDS011;9752;54.270;12.470;2023-01-09T12:09:31;14.47;;;11.07;;
19235;SDS011;9752;54.270;12.470;2023-01-09T12:14:47;10.07;;;9.03;;
19235;SDS011;9752;54.270;12.470;2023-01-09T12:20:19;14.50;;;11.07;;
19235;SDS011;9752;54.270;12.470;2023-01-09T12:25:30;11.70;;;9.70;;
19235;SDS011;9752;54.270;12.470;2023-01-09T12:30:47;10.43;;;9.30;;
19235;SDS011;9752;54.270;12.470;2023-01-09T12:36:06;11.23;;;7.80;;
19235;SDS011;9752;54.270;12.470;2023-01-09T12:46:53;9.03;;;7.23;;
19235;SDS011;9752;54.270;12.470;2023-01-09T12:52:07;9.40;;;6.63;;
19235;SDS011;9752;54.270;12.470;2023-01-09T12:57:14;6.80;;;6.10;;
19235;SDS011;9752;54.270;12.470;2023-01-09T13:02:24;5.77;;;5.27;;
19235;SDS011;9752;54.270;12.470;2023-01-09T13:07:33;4.63;;;4.23;;
19235;SDS011;9752;54.270;12.470;2023-01-09T13:12:40;5.77;;;4.87;;
19235;SDS011;9752;54.270;12.470;2023-01-09T13:17:46;5.57;;;4.93;;
19235;SDS011;9752;54.270;12.470;2023-01-09T13:22:51;5.50;;;4.30;;
19235;SDS011;9752;54.270;12.470;2023-01-09T13:27:54;5.00;;;4.50;;
19235;SDS011;9752;54.270;12.470;2023-01-09T13:33:03;5.60;;;4.50;;
19235;SDS011;9752;54.270;12.470;2023-01-09T13:38:16;4.60;;;4.30;;
19235;SDS011;9752;54.270;12.470;2023-01-09T13:43:20;6.07;;;5.37;;
19235;SDS011;9752;54.270;12.470;2023-01-09T13:48:25;9.50;;;5.50;;
19235;SDS011;9752;54.270;12.470;2023-01-09T13:53:41;8.50;;;6.63;;
19235;SDS011;9752;54.270;12.470;2023-01-09T13:59:00;10.73;;;7.10;;
19235;SDS011;9752;54.270;12.470;2023-01-09T14:04:35;7.40;;;6.67;;
19235;SDS011;9752;54.270;12.470;2023-01-09T14:09:47;11.73;;;7.17;;
19235;SDS011;9752;54.270;12.470;2023-01-09T14:14:53;11.67;;;7.03;;
19235;SDS011;9752;54.270;12.470;2023-01-09T14:20:00;13.37;;;7.80;;
19235;SDS011;9752;54.270;12.470;2023-01-09T14:25:06;10.10;;;8.40;;
19235;SDS011;9752;54.270;12.470;2023-01-09T14:30:29;13.73;;;7.70;;
19235;SDS011;9752;54.270;12.470;2023-01-09T14:35:36;10.87;;;8.93;;
19235;SDS011;9752;54.270;12.470;2023-01-09T14:40:43;10.00;;;8.23;;
19235;SDS011;9752;54.270;12.470;2023-01-09T14:45:48;17.03;;;8.40;;
19235;SDS011;9752;54.270;12.470;2023-01-09T14:50:51;13.47;;;9.17;;
19235;SDS011;9752;54.270;12.470;2023-01-09T14:55:57;12.53;;;9.50;;
19235;SDS011;9752;54.270;12.470;2023-01-09T15:01:00;22.03;;;10.53;;
19235;SDS011;9752;54.270;12.470;2023-01-09T15:06:06;17.63;;;10.37;;
19235;SDS011;9752;54.270;12.470;2023-01-09T15:11:13;15.70;;;11.17;;
19235;SDS011;9752;54.270;12.470;2023-01-09T15:16:16;16.03;;;10.23;;
19235;SDS011;9752;54.270;12.470;2023-01-09T15:21:22;15.77;;;9.37;;
19235;SDS011;9752;54.270;12.470;2023-01-09T15:26:26;14.90;;;9.73;;
19235;SDS011;9752;54.270;12.470;2023-01-09T15:31:29;18.90;;;11.13;;
19235;SDS011;9752;54.270;12.470;2023-01-09T15:36:32;17.73;;;12.50;;
19235;SDS011;9752;54.270;12.470;2023-01-09T15:41:37;34.43;;;19.30;;
19235;SDS011;9752;54.270;12.470;2023-01-09T15:46:56;50.43;;;32.77;;
19235;SDS011;9752;54.270;12.470;2023-01-09T15:52:01;41.77;;;26.57;;
19235;SDS011;9752;54.270;12.470;2023-01-09T15:57:25;33.63;;;24.97;;
19235;SDS011;9752;54.270;12.470;2023-01-09T16:02:29;27.17;;;18.63;;
19235;SDS011;9752;54.270;12.470;2023-01-09T16:07:50;22.40;;;14.40;;
19235;SDS011;9752;54.270;12.470;2023-01-09T16:12:52;20.67;;;15.57;;
19235;SDS011;9752;54.270;12.470;2023-01-09T16:18:04;30.00;;;15.27;;
19235;SDS011;9752;54.270;12.470;2023-01-09T16:23:17;25.33;;;18.20;;
19235;SDS011;9752;54.270;12.470;2023-01-09T16:28:24;26.73;;;17.50;;
19235;SDS011;9752;54.270;12.470;2023-01-09T16:33:28;30.73;;;19.13;;
19235;SDS011;9752;54.270;12.470;2023-01-09T16:38:32;30.80;;;17.27;;
19235;SDS011;9752;54.270;12.470;2023-01-09T16:43:34;40.03;;;24.07;;
19235;SDS011;9752;54.270;12.470;2023-01-09T16:48:35;43.87;;;26.00;;
19235;SDS011;9752;54.270;12.470;2023-01-09T16:53:39;42.93;;;26.93;;
19235;SDS011;9752;54.270;12.470;2023-01-09T16:58:41;51.33;;;32.00;;
19235;SDS011;9752;54.270;12.470;2023-01-09T17:03:43;38.17;;;21.97;;
19235;SDS011;9752;54.270;12.470;2023-01-09T17:08:46;40.43;;;23.70;;
19235;SDS011;9752;54.270;12.470;2023-01-09T17:13:50;29.23;;;19.97;;
19235;SDS011;9752;54.270;12.470;2023-01-09T17:18:52;39.03;;;20.60;;
19235;SDS011;9752;54.270;12.470;2023-01-09T17:23:55;29.80;;;17.13;;
19235;SDS011;9752;54.270;12.470;2023-01-09T17:29:14;35.60;;;17.40;;
19235;SDS011;9752;54.270;12.470;2023-01-09T17:34:16;33.07;;;17.30;;
19235;SDS011;9752;54.270;12.470;2023-01-09T17:39:19;24.63;;;15.10;;
19235;SDS011;9752;54.270;12.470;2023-01-09T17:44:22;20.75;;;13.45;;
19235;SDS011;9752;54.270;12.470;2023-01-09T17:49:24;31.40;;;15.37;;
19235;SDS011;9752;54.270;12.470;2023-01-09T17:54:27;36.07;;;19.17;;
19235;SDS011;9752;54.270;12.470;2023-01-09T17:59:30;28.20;;;17.23;;
19235;SDS011;9752;54.270;12.470;2023-01-09T18:04:31;23.17;;;14.40;;
19235;SDS011;9752;54.270;12.470;2023-01-09T18:09:38;29.70;;;17.57;;
19235;SDS011;9752;54.270;12.470;2023-01-09T18:14:40;42.30;;;25.63;;
19235;SDS011;9752;54.270;12.470;2023-01-09T18:19:42;35.23;;;21.07;;
19235;SDS011;9752;54.270;12.470;2023-01-09T18:24:46;35.63;;;20.83;;
19235;SDS011;9752;54.270;12.470;2023-01-09T18:29:48;40.93;;;22.87;;
19235;SDS011;9752;54.270;12.470;2023-01-09T18:34:50;30.93;;;19.93;;
19235;SDS011;9752;54.270;12.470;2023-01-09T18:39:53;27.53;;;18.40;;
19235;SDS011;9752;54.270;12.470;2023-01-09T18:44:54;32.87;;;18.67;;
19235;SDS011;9752;54.270;12.470;2023-01-09T18:49:56;31.93;;;17.13;;
19235;SDS011;9752;54.270;12.470;2023-01-09T18:54:59;29.83;;;18.77;;
19235;SDS011;9752;54.270;12.470;2023-01-09T19:00:03;32.67;;;19.80;;
19235;SDS011;9752;54.270;12.470;2023-01-09T19:05:06;28.23;;;17.97;;
19235;SDS011;9752;54.270;12.470;2023-01-09T19:10:10;18.53;;;14.10;;
19235;SDS011;9752;54.270;12.470;2023-01-09T19:15:12;17.90;;;12.80;;
19235;SDS011;9752;54.270;12.470;2023-01-09T19:20:14;20.67;;;12.97;;
19235;SDS011;9752;54.270;12.470;2023-01-09T19:25:17;24.23;;;14.37;;
19235;SDS011;9752;54.270;12.470;2023-01-09T19:30:19;22.67;;;14.57;;
19235;SDS011;9752;54.270;12.470;2023-01-09T19:35:21;23.87;;;14.47;;
19235;SDS011;9752;54.270;12.470;2023-01-09T19:40:24;17.87;;;13.40;;
19235;SDS011;9752;54.270;12.470;2023-01-09T19:45:25;17.67;;;13.23;;
19235;SDS011;9752;54.270;12.470;2023-01-09T19:50:27;20.63;;;14.23;;
19235;SDS011;9752;54.270;12.470;2023-01-09T19:55:30;22.93;;;13.53;;
19235;SDS011;9752;54.270;12.470;2023-01-09T20:00:32;24.93;;;15.60;;
19235;SDS011;9752;54.270;12.470;2023-01-09T20:05:33;24.70;;;15.40;;
19235;SDS011;9752;54.270;12.470;2023-01-09T20:10:37;15.43;;;12.33;;
19235;SDS011;9752;54.270;12.470;2023-01-09T20:15:39;19.10;;;12.87;;
19235;SDS011;9752;54.270;12.470;2023-01-09T20:20:46;23.17;;;14.97;;
19235;SDS011;9752;54.270;12.470;2023-01-09T20:25:50;24.17;;;15.73;;
19235;SDS011;9752;54.270;12.470;2023-01-09T20:30:52;22.10;;;15.00;;
19235;SDS011;9752;54.270;12.470;2023-01-09T20:35:54;20.53;;;12.73;;
19235;SDS011;9752;54.270;12.470;2023-01-09T20:41:06;21.57;;;14.30;;
19235;SDS011;9752;54.270;12.470;2023-01-09T20:46:09;23.60;;;14.03;;
19235;SDS011;9752;54.270;12.470;2023-01-09T20:51:10;20.07;;;13.03;;
19235;SDS011;9752;54.270;12.470;2023-01-09T20:56:14;20.97;;;14.57;;
19235;SDS011;9752;54.270;12.470;2023-01-09T21:01:16;18.00;;;13.20;;
19235;SDS011;9752;54.270;12.470;2023-01-09T21:06:18;19.97;;;13.07;;
19235;SDS011;9752;54.270;12.470;2023-01-09T21:11:23;20.53;;;12.30;;
19235;SDS011;9752;54.270;12.470;2023-01-09T21:16:24;21.50;;;12.63;;
19235;SDS011;9752;54.270;12.470;2023-01-09T21:21:26;21.17;;;12.20;;
19235;SDS011;9752;54.270;12.470;2023-01-09T21:26:29;23.13;;;13.33;;
19235;SDS011;9752;54.270;12.470;2023-01-09T21:31:31;26.97;;;14.40;;
19235;SDS011;9752;54.270;12.470;2023-01-09T21:36:33;22.30;;;13.83;;
19235;SDS011;9752;54.270;12.470;2023-01-09T21:41:37;19.77;;;13.13;;
19235;SDS011;9752;54.270;12.470;2023-01-09T21:46:55;21.57;;;14.53;;
19235;SDS011;9752;54.270;12.470;2023-01-09T21:51:58;23.07;;;13.97;;
19235;SDS011;9752;54.270;12.470;2023-01-09T21:57:02;29.57;;;15.87;;
19235;SDS011;9752;54.270;12.470;2023-01-09T22:02:04;25.10;;;14.77;;
19235;SDS011;9752;54.270;12.470;2023-01-09T22:07:05;26.03;;;15.30;;
19235;SDS011;9752;54.270;12.470;2023-01-09T22:12:10;23.23;;;13.73;;
19235;SDS011;9752;54.270;12.470;2023-01-09T22:17:12;22.70;;;13.90;;
19235;SDS011;9752;54.270;12.470;2023-01-09T22:22:14;21.53;;;14.60;;
19235;SDS011;9752;54.270;12.470;2023-01-09T22:27:17;24.27;;;15.23;;
19235;SDS011;9752;54.270;12.470;2023-01-09T22:32:19;19.93;;;13.20;;
19235;SDS011;9752;54.270;12.470;2023-01-09T22:37:21;29.87;;;15.50;;
19235;SDS011;9752;54.270;12.470;2023-01-09T22:42:24;24.10;;;13.80;;
19235;SDS011;9752;54.270;12.470;2023-01-09T22:47:26;30.87;;;16.37;;
19235;SDS011;9752;54.270;12.470;2023-01-09T22:52:27;22.47;;;14.20;;
19235;SDS011;9752;54.270;12.470;2023-01-09T22:57:30;21.30;;;12.87;;
19235;SDS011;9752;54.270;12.470;2023-01-09T23:02:32;29.60;;;14.90;;
19235;SDS011;9752;54.270;12.470;2023-01-09T23:07:34;22.73;;;14.23;;
19235;SDS011;9752;54.270;12.470;2023-01-09T23:12:37;24.40;;;13.80;;
19235;SDS011;9752;54.270;12.470;2023-01-09T23:17:39;27.47;;;13.80;;
19235;SDS011;9752;54.270;12.470;2023-01-09T23:22:41;23.17;;;14.37;;
19235;SDS011;9752;54.270;12.470;2023-01-09T23:27:44;24.67;;;14.30;;
19235;SDS011;9752;54.270;12.470;2023-01-09T23:32:45;28.83;;;14.77;;
19235;SDS011;9752;54.270;12.470;2023-01-09T23:37:47;26.07;;;15.83;;
19235;SDS011;9752;54.270;12.470;2023-01-09T23:42:50;35.07;;;16.20;;
19235;SDS011;9752;54.270;12.470;2023-01-09T23:48:10;26.80;;;15.20;;
19235;SDS011;9752;54.270;12.470;2023-01-09T23:53:13;28.70;;;16.30;;
19235;SDS011;9752;54.270;12.470;2023-01-09T23:58:16;32.37;;;17.67;;
